sensor_id;sensor_type;location;lat;lon;timestamp;P1;durP1;ratioP1;P2;durP2;ratioP2
37905;SDS011;23739;51.448;6.674;2024-02-26T00:01:54;8.05;;;4.40;;
37905;SDS011;23739;51.448;6.674;2024-02-26T00:04:20;7.35;;;4.00;;
37905;SDS011;23739;51.448;6.674;2024-02-26T00:06:46;5.28;;;2.92;;
37905;SDS011;23739;51.448;6.674;2024-02-26T00:09:15;3.38;;;2.28;;
37905;SDS011;23739;51.448;6.674;2024-02-26T00:11:41;4.50;;;2.25;;
37905;SDS011;23739;51.448;6.674;2024-02-26T00:14:07;3.65;;;2.20;;
37905;SDS011;23739;51.448;6.674;2024-02-26T00:16:33;5.82;;;2.45;;
37905;SDS011;23739;51.448;6.674;2024-02-26T00:18:59;4.10;;;2.20;;
37905;SDS011;23739;51.448;6.674;2024-02-26T00:21:25;4.47;;;2.15;;
37905;SDS011;23739;51.448;6.674;2024-02-26T00:23:55;4.65;;;2.47;;
37905;SDS011;23739;51.448;6.674;2024-02-26T00:26:20;4.95;;;2.03;;
37905;SDS011;23739;51.448;6.674;2024-02-26T00:28:46;8.40;;;2.78;;
37905;SDS011;23739;51.448;6.674;2024-02-26T00:31:12;3.45;;;1.95;;
37905;SDS011;23739;51.448;6.674;2024-02-26T00:33:39;4.28;;;1.90;;
37905;SDS011;23739;51.448;6.674;2024-02-26T00:36:05;9.15;;;2.58;;
37905;SDS011;23739;51.448;6.674;2024-02-26T00:38:31;5.55;;;2.13;;
37905;SDS011;23739;51.448;6.674;2024-02-26T00:40:58;5.53;;;2.47;;
37905;SDS011;23739;51.448;6.674;2024-02-26T00:43:24;6.03;;;3.22;;
37905;SDS011;23739;51.448;6.674;2024-02-26T00:45:50;4.88;;;3.17;;
37905;SDS011;23739;51.448;6.674;2024-02-26T00:48:17;5.32;;;2.45;;
37905;SDS011;23739;51.448;6.674;2024-02-26T00:50:43;5.22;;;2.58;;
37905;SDS011;23739;51.448;6.674;2024-02-26T00:53:09;4.82;;;2.05;;
37905;SDS011;23739;51.448;6.674;2024-02-26T00:55:35;5.90;;;1.70;;
37905;SDS011;23739;51.448;6.674;2024-02-26T00:58:01;4.90;;;2.00;;
37905;SDS011;23739;51.448;6.674;2024-02-26T01:00:27;2.95;;;1.80;;
37905;SDS011;23739;51.448;6.674;2024-02-26T01:02:53;6.28;;;1.60;;
37905;SDS011;23739;51.448;6.674;2024-02-26T01:05:19;5.97;;;3.42;;
37905;SDS011;23739;51.448;6.674;2024-02-26T01:07:45;2.70;;;1.50;;
37905;SDS011;23739;51.448;6.674;2024-02-26T01:10:12;1.42;;;1.33;;
37905;SDS011;23739;51.448;6.674;2024-02-26T01:12:38;2.40;;;1.45;;
37905;SDS011;23739;51.448;6.674;2024-02-26T01:15:04;2.00;;;1.17;;
37905;SDS011;23739;51.448;6.674;2024-02-26T01:17:30;2.42;;;1.38;;
37905;SDS011;23739;51.448;6.674;2024-02-26T01:19:56;2.33;;;1.10;;
37905;SDS011;23739;51.448;6.674;2024-02-26T01:22:22;1.55;;;1.10;;
37905;SDS011;23739;51.448;6.674;2024-02-26T01:24:48;5.05;;;1.20;;
37905;SDS011;23739;51.448;6.674;2024-02-26T01:27:14;2.08;;;1.15;;
37905;SDS011;23739;51.448;6.674;2024-02-26T01:29:41;3.35;;;2.15;;
37905;SDS011;23739;51.448;6.674;2024-02-26T01:32:07;3.13;;;1.00;;
37905;SDS011;23739;51.448;6.674;2024-02-26T01:34:33;4.78;;;1.58;;
37905;SDS011;23739;51.448;6.674;2024-02-26T01:36:59;2.13;;;1.33;;
37905;SDS011;23739;51.448;6.674;2024-02-26T01:39:25;3.25;;;1.17;;
37905;SDS011;23739;51.448;6.674;2024-02-26T01:41:53;1.35;;;1.08;;
37905;SDS011;23739;51.448;6.674;2024-02-26T01:44:20;1.48;;;0.90;;
37905;SDS011;23739;51.448;6.674;2024-02-26T01:46:46;1.65;;;0.85;;
37905;SDS011;23739;51.448;6.674;2024-02-26T01:49:13;3.00;;;1.05;;
37905;SDS011;23739;51.448;6.674;2024-02-26T01:51:40;1.67;;;1.20;;
37905;SDS011;23739;51.448;6.674;2024-02-26T01:54:08;4.00;;;1.15;;
37905;SDS011;23739;51.448;6.674;2024-02-26T01:56:35;1.77;;;1.13;;
37905;SDS011;23739;51.448;6.674;2024-02-26T01:59:01;2.17;;;1.40;;
37905;SDS011;23739;51.448;6.674;2024-02-26T02:01:29;4.18;;;1.15;;
37905;SDS011;23739;51.448;6.674;2024-02-26T02:03:59;4.45;;;2.05;;
37905;SDS011;23739;51.448;6.674;2024-02-26T02:06:26;4.85;;;1.77;;
37905;SDS011;23739;51.448;6.674;2024-02-26T02:08:53;3.45;;;1.45;;
37905;SDS011;23739;51.448;6.674;2024-02-26T02:11:20;3.28;;;1.25;;
37905;SDS011;23739;51.448;6.674;2024-02-26T02:13:46;5.80;;;1.45;;
37905;SDS011;23739;51.448;6.674;2024-02-26T02:16:12;4.20;;;1.65;;
37905;SDS011;23739;51.448;6.674;2024-02-26T02:18:38;4.38;;;1.50;;
37905;SDS011;23739;51.448;6.674;2024-02-26T02:21:05;4.43;;;2.72;;
37905;SDS011;23739;51.448;6.674;2024-02-26T02:23:31;3.78;;;2.20;;
37905;SDS011;23739;51.448;6.674;2024-02-26T02:25:57;5.10;;;2.58;;
37905;SDS011;23739;51.448;6.674;2024-02-26T02:28:24;4.93;;;2.80;;
37905;SDS011;23739;51.448;6.674;2024-02-26T02:30:51;3.25;;;2.10;;
37905;SDS011;23739;51.448;6.674;2024-02-26T02:33:17;3.25;;;2.28;;
37905;SDS011;23739;51.448;6.674;2024-02-26T02:35:43;3.17;;;2.05;;
37905;SDS011;23739;51.448;6.674;2024-02-26T02:38:10;2.88;;;2.30;;
37905;SDS011;23739;51.448;6.674;2024-02-26T02:40:37;3.00;;;1.80;;
37905;SDS011;23739;51.448;6.674;2024-02-26T02:43:03;2.65;;;1.65;;
37905;SDS011;23739;51.448;6.674;2024-02-26T02:45:29;3.03;;;1.95;;
37905;SDS011;23739;51.448;6.674;2024-02-26T02:47:55;5.70;;;2.60;;
37905;SDS011;23739;51.448;6.674;2024-02-26T02:50:21;5.55;;;2.28;;
37905;SDS011;23739;51.448;6.674;2024-02-26T02:52:47;8.75;;;2.72;;
37905;SDS011;23739;51.448;6.674;2024-02-26T02:55:15;6.68;;;2.45;;
37905;SDS011;23739;51.448;6.674;2024-02-26T02:57:41;5.97;;;2.70;;
37905;SDS011;23739;51.448;6.674;2024-02-26T03:00:08;6.30;;;2.92;;
37905;SDS011;23739;51.448;6.674;2024-02-26T03:02:34;5.68;;;2.60;;
37905;SDS011;23739;51.448;6.674;2024-02-26T03:05:03;6.93;;;2.60;;
37905;SDS011;23739;51.448;6.674;2024-02-26T03:07:30;7.53;;;2.97;;
37905;SDS011;23739;51.448;6.674;2024-02-26T03:09:56;4.28;;;2.58;;
37905;SDS011;23739;51.448;6.674;2024-02-26T03:12:22;6.18;;;3.60;;
37905;SDS011;23739;51.448;6.674;2024-02-26T03:14:48;4.05;;;2.90;;
37905;SDS011;23739;51.448;6.674;2024-02-26T03:17:15;6.65;;;3.53;;
37905;SDS011;23739;51.448;6.674;2024-02-26T03:19:41;5.68;;;2.60;;
37905;SDS011;23739;51.448;6.674;2024-02-26T03:22:07;6.25;;;2.72;;
37905;SDS011;23739;51.448;6.674;2024-02-26T03:24:33;4.00;;;2.25;;
37905;SDS011;23739;51.448;6.674;2024-02-26T03:26:59;4.03;;;2.00;;
37905;SDS011;23739;51.448;6.674;2024-02-26T03:29:25;2.13;;;1.67;;
37905;SDS011;23739;51.448;6.674;2024-02-26T03:31:51;4.25;;;2.42;;
37905;SDS011;23739;51.448;6.674;2024-02-26T03:34:17;3.65;;;1.92;;
37905;SDS011;23739;51.448;6.674;2024-02-26T03:36:44;3.15;;;1.83;;
37905;SDS011;23739;51.448;6.674;2024-02-26T03:39:10;2.65;;;1.73;;
37905;SDS011;23739;51.448;6.674;2024-02-26T03:41:36;3.38;;;1.58;;
37905;SDS011;23739;51.448;6.674;2024-02-26T03:44:03;3.90;;;2.22;;
37905;SDS011;23739;51.448;6.674;2024-02-26T03:46:29;4.93;;;2.38;;
37905;SDS011;23739;51.448;6.674;2024-02-26T03:48:55;3.70;;;2.05;;
37905;SDS011;23739;51.448;6.674;2024-02-26T03:51:21;5.55;;;2.28;;
37905;SDS011;23739;51.448;6.674;2024-02-26T03:53:47;3.13;;;1.80;;
37905;SDS011;23739;51.448;6.674;2024-02-26T03:56:13;4.00;;;2.25;;
37905;SDS011;23739;51.448;6.674;2024-02-26T03:58:39;5.28;;;2.38;;
37905;SDS011;23739;51.448;6.674;2024-02-26T04:01:08;3.45;;;2.35;;
37905;SDS011;23739;51.448;6.674;2024-02-26T04:03:35;5.18;;;2.25;;
37905;SDS011;23739;51.448;6.674;2024-02-26T04:06:01;3.72;;;2.17;;
37905;SDS011;23739;51.448;6.674;2024-02-26T04:08:28;5.75;;;2.17;;
37905;SDS011;23739;51.448;6.674;2024-02-26T04:10:54;4.25;;;2.38;;
37905;SDS011;23739;51.448;6.674;2024-02-26T04:13:20;2.97;;;2.20;;
37905;SDS011;23739;51.448;6.674;2024-02-26T04:15:46;2.92;;;1.98;;
37905;SDS011;23739;51.448;6.674;2024-02-26T04:18:12;3.03;;;2.05;;
37905;SDS011;23739;51.448;6.674;2024-02-26T04:20:39;6.57;;;2.45;;
37905;SDS011;23739;51.448;6.674;2024-02-26T04:23:07;3.00;;;2.47;;
37905;SDS011;23739;51.448;6.674;2024-02-26T04:25:33;4.03;;;2.13;;
37905;SDS011;23739;51.448;6.674;2024-02-26T04:27:59;3.22;;;2.00;;
37905;SDS011;23739;51.448;6.674;2024-02-26T04:30:25;3.70;;;2.28;;
37905;SDS011;23739;51.448;6.674;2024-02-26T04:32:51;2.30;;;2.05;;
37905;SDS011;23739;51.448;6.674;2024-02-26T04:35:17;2.53;;;2.05;;
37905;SDS011;23739;51.448;6.674;2024-02-26T04:37:43;2.25;;;1.70;;
37905;SDS011;23739;51.448;6.674;2024-02-26T04:40:09;3.47;;;2.30;;
37905;SDS011;23739;51.448;6.674;2024-02-26T04:42:35;4.30;;;2.60;;
37905;SDS011;23739;51.448;6.674;2024-02-26T04:45:01;5.15;;;2.00;;
37905;SDS011;23739;51.448;6.674;2024-02-26T04:47:28;4.20;;;1.75;;
37905;SDS011;23739;51.448;6.674;2024-02-26T04:49:55;3.72;;;2.22;;
37905;SDS011;23739;51.448;6.674;2024-02-26T04:52:21;2.75;;;2.38;;
37905;SDS011;23739;51.448;6.674;2024-02-26T04:54:47;3.75;;;1.90;;
37905;SDS011;23739;51.448;6.674;2024-02-26T04:57:13;4.18;;;2.95;;
37905;SDS011;23739;51.448;6.674;2024-02-26T04:59:39;3.38;;;2.03;;
37905;SDS011;23739;51.448;6.674;2024-02-26T05:02:07;2.60;;;1.77;;
37905;SDS011;23739;51.448;6.674;2024-02-26T05:04:33;2.90;;;2.00;;
37905;SDS011;23739;51.448;6.674;2024-02-26T05:06:59;3.25;;;1.60;;
37905;SDS011;23739;51.448;6.674;2024-02-26T05:09:25;1.85;;;1.75;;
37905;SDS011;23739;51.448;6.674;2024-02-26T05:11:51;2.53;;;2.08;;
37905;SDS011;23739;51.448;6.674;2024-02-26T05:14:18;4.03;;;2.20;;
37905;SDS011;23739;51.448;6.674;2024-02-26T05:16:44;3.42;;;1.98;;
37905;SDS011;23739;51.448;6.674;2024-02-26T05:19:10;4.43;;;2.20;;
37905;SDS011;23739;51.448;6.674;2024-02-26T05:21:37;3.40;;;1.83;;
37905;SDS011;23739;51.448;6.674;2024-02-26T05:24:03;4.55;;;2.30;;
37905;SDS011;23739;51.448;6.674;2024-02-26T05:26:29;3.10;;;1.83;;
37905;SDS011;23739;51.448;6.674;2024-02-26T05:28:55;2.17;;;1.80;;
37905;SDS011;23739;51.448;6.674;2024-02-26T05:31:25;4.93;;;2.35;;
37905;SDS011;23739;51.448;6.674;2024-02-26T05:33:51;3.45;;;2.03;;
37905;SDS011;23739;51.448;6.674;2024-02-26T05:36:18;2.90;;;1.80;;
37905;SDS011;23739;51.448;6.674;2024-02-26T05:38:44;2.75;;;2.15;;
37905;SDS011;23739;51.448;6.674;2024-02-26T05:41:11;6.25;;;2.30;;
37905;SDS011;23739;51.448;6.674;2024-02-26T05:43:37;2.90;;;2.28;;
37905;SDS011;23739;51.448;6.674;2024-02-26T05:46:03;2.70;;;1.95;;
37905;SDS011;23739;51.448;6.674;2024-02-26T05:48:29;3.08;;;2.00;;
37905;SDS011;23739;51.448;6.674;2024-02-26T05:50:57;3.38;;;2.20;;
37905;SDS011;23739;51.448;6.674;2024-02-26T05:53:23;2.80;;;1.85;;
37905;SDS011;23739;51.448;6.674;2024-02-26T05:55:49;3.40;;;1.48;;
37905;SDS011;23739;51.448;6.674;2024-02-26T05:58:15;3.38;;;1.90;;
37905;SDS011;23739;51.448;6.674;2024-02-26T06:00:41;2.78;;;2.22;;
37905;SDS011;23739;51.448;6.674;2024-02-26T06:03:07;2.90;;;1.88;;
37905;SDS011;23739;51.448;6.674;2024-02-26T06:05:33;2.55;;;2.25;;
37905;SDS011;23739;51.448;6.674;2024-02-26T06:07:59;2.38;;;1.88;;
37905;SDS011;23739;51.448;6.674;2024-02-26T06:10:26;3.65;;;2.40;;
37905;SDS011;23739;51.448;6.674;2024-02-26T06:12:52;5.90;;;2.35;;
37905;SDS011;23739;51.448;6.674;2024-02-26T06:15:18;2.20;;;2.00;;
37905;SDS011;23739;51.448;6.674;2024-02-26T06:17:44;3.83;;;2.70;;
37905;SDS011;23739;51.448;6.674;2024-02-26T06:20:10;2.80;;;2.10;;
37905;SDS011;23739;51.448;6.674;2024-02-26T06:22:39;2.35;;;2.08;;
37905;SDS011;23739;51.448;6.674;2024-02-26T06:25:05;4.57;;;2.65;;
37905;SDS011;23739;51.448;6.674;2024-02-26T06:27:31;3.60;;;2.63;;
37905;SDS011;23739;51.448;6.674;2024-02-26T06:29:57;3.30;;;2.35;;
37905;SDS011;23739;51.448;6.674;2024-02-26T06:32:23;7.35;;;2.58;;
37905;SDS011;23739;51.448;6.674;2024-02-26T06:34:51;5.50;;;3.15;;
37905;SDS011;23739;51.448;6.674;2024-02-26T06:37:18;4.85;;;2.85;;
37905;SDS011;23739;51.448;6.674;2024-02-26T06:39:44;2.83;;;2.55;;
37905;SDS011;23739;51.448;6.674;2024-02-26T06:42:10;3.28;;;2.70;;
37905;SDS011;23739;51.448;6.674;2024-02-26T06:44:36;3.05;;;2.63;;
37905;SDS011;23739;51.448;6.674;2024-02-26T06:47:02;3.47;;;2.55;;
37905;SDS011;23739;51.448;6.674;2024-02-26T06:49:29;3.03;;;2.63;;
37905;SDS011;23739;51.448;6.674;2024-02-26T06:51:55;4.07;;;2.92;;
37905;SDS011;23739;51.448;6.674;2024-02-26T06:54:21;2.80;;;2.50;;
37905;SDS011;23739;51.448;6.674;2024-02-26T06:56:47;4.50;;;3.25;;
37905;SDS011;23739;51.448;6.674;2024-02-26T06:59:13;4.97;;;2.50;;
37905;SDS011;23739;51.448;6.674;2024-02-26T07:01:40;5.47;;;2.88;;
37905;SDS011;23739;51.448;6.674;2024-02-26T07:04:06;11.27;;;3.28;;
37905;SDS011;23739;51.448;6.674;2024-02-26T07:06:33;4.10;;;2.78;;
37905;SDS011;23739;51.448;6.674;2024-02-26T07:08:59;3.95;;;2.70;;
37905;SDS011;23739;51.448;6.674;2024-02-26T07:11:25;3.55;;;2.65;;
37905;SDS011;23739;51.448;6.674;2024-02-26T07:13:51;3.70;;;2.88;;
37905;SDS011;23739;51.448;6.674;2024-02-26T07:16:17;2.70;;;2.50;;
37905;SDS011;23739;51.448;6.674;2024-02-26T07:18:43;3.78;;;2.55;;
37905;SDS011;23739;51.448;6.674;2024-02-26T07:21:09;4.28;;;2.67;;
37905;SDS011;23739;51.448;6.674;2024-02-26T07:23:35;3.08;;;2.50;;
37905;SDS011;23739;51.448;6.674;2024-02-26T07:26:01;3.90;;;2.53;;
37905;SDS011;23739;51.448;6.674;2024-02-26T07:28:27;3.45;;;2.67;;
37905;SDS011;23739;51.448;6.674;2024-02-26T07:30:53;3.38;;;2.42;;
37905;SDS011;23739;51.448;6.674;2024-02-26T07:33:19;3.05;;;2.65;;
37905;SDS011;23739;51.448;6.674;2024-02-26T07:35:45;5.88;;;2.55;;
37905;SDS011;23739;51.448;6.674;2024-02-26T07:38:11;4.10;;;2.33;;
37905;SDS011;23739;51.448;6.674;2024-02-26T07:40:38;5.78;;;3.45;;
37905;SDS011;23739;51.448;6.674;2024-02-26T07:43:05;6.15;;;2.78;;
37905;SDS011;23739;51.448;6.674;2024-02-26T07:45:31;6.13;;;3.10;;
37905;SDS011;23739;51.448;6.674;2024-02-26T07:47:58;5.88;;;2.70;;
37905;SDS011;23739;51.448;6.674;2024-02-26T07:50:24;5.50;;;3.63;;
37905;SDS011;23739;51.448;6.674;2024-02-26T07:52:50;6.28;;;2.78;;
37905;SDS011;23739;51.448;6.674;2024-02-26T07:55:17;6.82;;;3.08;;
37905;SDS011;23739;51.448;6.674;2024-02-26T07:57:44;7.47;;;3.45;;
37905;SDS011;23739;51.448;6.674;2024-02-26T08:00:10;5.13;;;3.00;;
37905;SDS011;23739;51.448;6.674;2024-02-26T08:02:37;4.95;;;2.58;;
37905;SDS011;23739;51.448;6.674;2024-02-26T08:05:03;3.17;;;2.58;;
37905;SDS011;23739;51.448;6.674;2024-02-26T08:07:29;5.43;;;3.50;;
37905;SDS011;23739;51.448;6.674;2024-02-26T08:09:55;5.35;;;3.13;;
37905;SDS011;23739;51.448;6.674;2024-02-26T08:12:22;4.97;;;3.45;;
37905;SDS011;23739;51.448;6.674;2024-02-26T08:14:48;6.65;;;4.88;;
37905;SDS011;23739;51.448;6.674;2024-02-26T08:17:15;5.93;;;4.25;;
37905;SDS011;23739;51.448;6.674;2024-02-26T08:19:41;4.88;;;3.50;;
37905;SDS011;23739;51.448;6.674;2024-02-26T08:22:07;5.50;;;3.53;;
37905;SDS011;23739;51.448;6.674;2024-02-26T08:24:34;3.08;;;2.60;;
37905;SDS011;23739;51.448;6.674;2024-02-26T08:27:01;4.05;;;3.53;;
37905;SDS011;23739;51.448;6.674;2024-02-26T08:29:27;3.88;;;2.60;;
37905;SDS011;23739;51.448;6.674;2024-02-26T08:31:53;3.85;;;2.75;;
37905;SDS011;23739;51.448;6.674;2024-02-26T08:34:19;3.67;;;2.50;;
37905;SDS011;23739;51.448;6.674;2024-02-26T08:36:45;3.15;;;2.30;;
37905;SDS011;23739;51.448;6.674;2024-02-26T08:39:11;3.63;;;3.13;;
37905;SDS011;23739;51.448;6.674;2024-02-26T08:41:38;5.40;;;3.75;;
37905;SDS011;23739;51.448;6.674;2024-02-26T08:44:05;5.20;;;2.80;;
37905;SDS011;23739;51.448;6.674;2024-02-26T08:46:31;4.57;;;2.85;;
37905;SDS011;23739;51.448;6.674;2024-02-26T08:48:57;4.18;;;2.83;;
37905;SDS011;23739;51.448;6.674;2024-02-26T08:51:23;3.08;;;2.47;;
37905;SDS011;23739;51.448;6.674;2024-02-26T08:53:49;7.07;;;3.00;;
37905;SDS011;23739;51.448;6.674;2024-02-26T08:56:16;3.70;;;2.58;;
37905;SDS011;23739;51.448;6.674;2024-02-26T08:58:42;4.03;;;2.72;;
37905;SDS011;23739;51.448;6.674;2024-02-26T09:01:09;5.80;;;3.00;;
37905;SDS011;23739;51.448;6.674;2024-02-26T09:03:35;3.35;;;2.40;;
37905;SDS011;23739;51.448;6.674;2024-02-26T09:06:01;4.00;;;2.88;;
37905;SDS011;23739;51.448;6.674;2024-02-26T09:08:27;3.33;;;2.38;;
37905;SDS011;23739;51.448;6.674;2024-02-26T09:10:53;4.68;;;2.90;;
37905;SDS011;23739;51.448;6.674;2024-02-26T09:13:19;3.28;;;2.03;;
37905;SDS011;23739;51.448;6.674;2024-02-26T09:15:45;3.35;;;2.60;;
37905;SDS011;23739;51.448;6.674;2024-02-26T09:18:11;2.47;;;2.28;;
37905;SDS011;23739;51.448;6.674;2024-02-26T09:20:37;4.38;;;2.63;;
37905;SDS011;23739;51.448;6.674;2024-02-26T09:23:04;6.90;;;2.85;;
37905;SDS011;23739;51.448;6.674;2024-02-26T09:25:30;5.05;;;3.25;;
37905;SDS011;23739;51.448;6.674;2024-02-26T09:27:56;5.63;;;2.72;;
37905;SDS011;23739;51.448;6.674;2024-02-26T09:30:22;3.40;;;2.90;;
37905;SDS011;23739;51.448;6.674;2024-02-26T09:32:48;8.82;;;3.90;;
37905;SDS011;23739;51.448;6.674;2024-02-26T09:35:14;4.25;;;3.00;;
37905;SDS011;23739;51.448;6.674;2024-02-26T09:37:40;3.45;;;2.67;;
37905;SDS011;23739;51.448;6.674;2024-02-26T09:40:08;3.17;;;2.80;;
37905;SDS011;23739;51.448;6.674;2024-02-26T09:42:36;4.50;;;2.53;;
37905;SDS011;23739;51.448;6.674;2024-02-26T09:45:05;4.97;;;3.47;;
37905;SDS011;23739;51.448;6.674;2024-02-26T09:47:33;3.53;;;2.88;;
37905;SDS011;23739;51.448;6.674;2024-02-26T09:50:01;6.47;;;3.17;;
37905;SDS011;23739;51.448;6.674;2024-02-26T09:52:28;4.65;;;2.17;;
37905;SDS011;23739;51.448;6.674;2024-02-26T09:54:56;5.80;;;3.03;;
37905;SDS011;23739;51.448;6.674;2024-02-26T09:57:22;3.95;;;2.63;;
37905;SDS011;23739;51.448;6.674;2024-02-26T09:59:50;4.18;;;2.75;;
37905;SDS011;23739;51.448;6.674;2024-02-26T10:02:17;3.97;;;2.42;;
37905;SDS011;23739;51.448;6.674;2024-02-26T10:04:44;2.85;;;2.60;;
37905;SDS011;23739;51.448;6.674;2024-02-26T10:07:12;4.65;;;2.80;;
37905;SDS011;23739;51.448;6.674;2024-02-26T10:09:39;5.88;;;3.28;;
37905;SDS011;23739;51.448;6.674;2024-02-26T10:12:06;5.63;;;3.13;;
37905;SDS011;23739;51.448;6.674;2024-02-26T10:14:32;4.60;;;3.03;;
37905;SDS011;23739;51.448;6.674;2024-02-26T10:16:59;4.00;;;3.25;;
37905;SDS011;23739;51.448;6.674;2024-02-26T10:19:28;3.70;;;3.38;;
37905;SDS011;23739;51.448;6.674;2024-02-26T10:21:58;4.03;;;3.15;;
37905;SDS011;23739;51.448;6.674;2024-02-26T10:24:24;7.10;;;2.83;;
37905;SDS011;23739;51.448;6.674;2024-02-26T10:26:51;4.72;;;3.75;;
37905;SDS011;23739;51.448;6.674;2024-02-26T10:29:18;3.17;;;2.75;;
37905;SDS011;23739;51.448;6.674;2024-02-26T10:31:44;4.80;;;3.05;;
37905;SDS011;23739;51.448;6.674;2024-02-26T10:34:10;7.57;;;3.75;;
37905;SDS011;23739;51.448;6.674;2024-02-26T10:36:36;3.53;;;2.92;;
37905;SDS011;23739;51.448;6.674;2024-02-26T10:39:06;5.50;;;3.60;;
37905;SDS011;23739;51.448;6.674;2024-02-26T10:41:35;5.50;;;2.95;;
37905;SDS011;23739;51.448;6.674;2024-02-26T10:44:01;4.60;;;2.80;;
37905;SDS011;23739;51.448;6.674;2024-02-26T10:46:27;6.43;;;3.17;;
37905;SDS011;23739;51.448;6.674;2024-02-26T10:48:53;4.65;;;3.33;;
37905;SDS011;23739;51.448;6.674;2024-02-26T10:51:26;5.35;;;3.78;;
37905;SDS011;23739;51.448;6.674;2024-02-26T10:53:54;8.98;;;4.38;;
37905;SDS011;23739;51.448;6.674;2024-02-26T10:56:24;6.40;;;4.43;;
37905;SDS011;23739;51.448;6.674;2024-02-26T10:58:50;4.35;;;2.95;;
37905;SDS011;23739;51.448;6.674;2024-02-26T11:01:17;4.82;;;3.72;;
37905;SDS011;23739;51.448;6.674;2024-02-26T11:03:45;7.00;;;3.58;;
37905;SDS011;23739;51.448;6.674;2024-02-26T11:06:12;4.47;;;3.47;;
37905;SDS011;23739;51.448;6.674;2024-02-26T11:08:38;6.85;;;5.00;;
37905;SDS011;23739;51.448;6.674;2024-02-26T11:11:05;5.63;;;4.35;;
37905;SDS011;23739;51.448;6.674;2024-02-26T11:13:31;6.53;;;3.85;;
37905;SDS011;23739;51.448;6.674;2024-02-26T11:15:57;4.97;;;3.92;;
37905;SDS011;23739;51.448;6.674;2024-02-26T11:18:24;6.25;;;4.35;;
37905;SDS011;23739;51.448;6.674;2024-02-26T11:20:52;5.97;;;4.25;;
37905;SDS011;23739;51.448;6.674;2024-02-26T11:23:22;6.82;;;5.00;;
37905;SDS011;23739;51.448;6.674;2024-02-26T11:25:51;5.90;;;4.28;;
37905;SDS011;23739;51.448;6.674;2024-02-26T11:28:18;6.50;;;4.07;;
37905;SDS011;23739;51.448;6.674;2024-02-26T11:30:46;5.70;;;4.18;;
37905;SDS011;23739;51.448;6.674;2024-02-26T11:33:13;5.38;;;4.30;;
37905;SDS011;23739;51.448;6.674;2024-02-26T11:35:39;7.75;;;4.20;;
37905;SDS011;23739;51.448;6.674;2024-02-26T11:38:06;7.53;;;4.90;;
37905;SDS011;23739;51.448;6.674;2024-02-26T11:40:32;6.28;;;4.65;;
37905;SDS011;23739;51.448;6.674;2024-02-26T11:42:59;6.72;;;4.68;;
37905;SDS011;23739;51.448;6.674;2024-02-26T11:48:12;4.38;;;3.60;;
37905;SDS011;23739;51.448;6.674;2024-02-26T11:50:39;6.50;;;4.43;;
37905;SDS011;23739;51.448;6.674;2024-02-26T11:58:38;8.52;;;5.13;;
37905;SDS011;23739;51.448;6.674;2024-02-26T12:01:04;6.80;;;4.70;;
37905;SDS011;23739;51.448;6.674;2024-02-26T12:03:30;6.25;;;4.97;;
37905;SDS011;23739;51.448;6.674;2024-02-26T12:05:57;10.40;;;5.50;;
37905;SDS011;23739;51.448;6.674;2024-02-26T12:11:27;10.60;;;6.82;;
37905;SDS011;23739;51.448;6.674;2024-02-26T12:14:25;8.10;;;5.90;;
37905;SDS011;23739;51.448;6.674;2024-02-26T12:17:02;7.60;;;5.65;;
37905;SDS011;23739;51.448;6.674;2024-02-26T12:19:57;9.18;;;5.65;;
37905;SDS011;23739;51.448;6.674;2024-02-26T12:22:51;9.15;;;5.85;;
37905;SDS011;23739;51.448;6.674;2024-02-26T12:28:17;15.20;;;6.70;;
37905;SDS011;23739;51.448;6.674;2024-02-26T12:33:47;9.18;;;6.13;;
37905;SDS011;23739;51.448;6.674;2024-02-26T12:39:24;11.68;;;6.57;;
37905;SDS011;23739;51.448;6.674;2024-02-26T12:42:01;8.88;;;6.65;;
37905;SDS011;23739;51.448;6.674;2024-02-26T12:44:38;10.70;;;7.20;;
37905;SDS011;23739;51.448;6.674;2024-02-26T12:47:07;9.95;;;5.72;;
37905;SDS011;23739;51.448;6.674;2024-02-26T12:49:42;10.50;;;6.20;;
37905;SDS011;23739;51.448;6.674;2024-02-26T12:52:12;8.80;;;6.60;;
37905;SDS011;23739;51.448;6.674;2024-02-26T12:54:38;11.45;;;6.43;;
37905;SDS011;23739;51.448;6.674;2024-02-26T12:57:06;14.48;;;6.50;;
37905;SDS011;23739;51.448;6.674;2024-02-26T12:59:33;11.57;;;7.15;;
37905;SDS011;23739;51.448;6.674;2024-02-26T13:02:00;15.10;;;7.90;;
37905;SDS011;23739;51.448;6.674;2024-02-26T13:04:28;19.02;;;9.07;;
37905;SDS011;23739;51.448;6.674;2024-02-26T13:06:54;23.27;;;10.88;;
37905;SDS011;23739;51.448;6.674;2024-02-26T13:09:25;19.83;;;9.60;;
37905;SDS011;23739;51.448;6.674;2024-02-26T13:11:55;14.95;;;8.30;;
37905;SDS011;23739;51.448;6.674;2024-02-26T13:14:21;11.27;;;6.45;;
37905;SDS011;23739;51.448;6.674;2024-02-26T13:16:56;8.68;;;5.25;;
37905;SDS011;23739;51.448;6.674;2024-02-26T13:19:23;9.80;;;5.18;;
37905;SDS011;23739;51.448;6.674;2024-02-26T13:21:49;6.85;;;5.25;;
37905;SDS011;23739;51.448;6.674;2024-02-26T13:24:15;7.55;;;4.93;;
37905;SDS011;23739;51.448;6.674;2024-02-26T13:26:42;8.32;;;4.80;;
37905;SDS011;23739;51.448;6.674;2024-02-26T13:29:08;8.30;;;5.28;;
37905;SDS011;23739;51.448;6.674;2024-02-26T13:31:40;11.32;;;6.25;;
37905;SDS011;23739;51.448;6.674;2024-02-26T13:34:06;9.65;;;5.55;;
37905;SDS011;23739;51.448;6.674;2024-02-26T13:36:32;8.45;;;5.18;;
37905;SDS011;23739;51.448;6.674;2024-02-26T13:38:58;10.15;;;5.15;;
37905;SDS011;23739;51.448;6.674;2024-02-26T13:41:26;9.27;;;6.00;;
37905;SDS011;23739;51.448;6.674;2024-02-26T13:43:52;8.93;;;4.97;;
37905;SDS011;23739;51.448;6.674;2024-02-26T13:46:18;9.68;;;5.03;;
37905;SDS011;23739;51.448;6.674;2024-02-26T13:48:45;7.10;;;4.90;;
37905;SDS011;23739;51.448;6.674;2024-02-26T13:51:11;6.22;;;4.07;;
37905;SDS011;23739;51.448;6.674;2024-02-26T13:53:37;7.47;;;4.50;;
37905;SDS011;23739;51.448;6.674;2024-02-26T13:56:03;8.57;;;4.43;;
37905;SDS011;23739;51.448;6.674;2024-02-26T13:58:30;6.07;;;3.97;;
37905;SDS011;23739;51.448;6.674;2024-02-26T14:00:57;6.90;;;4.75;;
37905;SDS011;23739;51.448;6.674;2024-02-26T14:03:24;6.43;;;4.28;;
37905;SDS011;23739;51.448;6.674;2024-02-26T14:05:51;5.85;;;4.07;;
37905;SDS011;23739;51.448;6.674;2024-02-26T14:08:17;6.93;;;4.22;;
37905;SDS011;23739;51.448;6.674;2024-02-26T14:10:43;9.38;;;3.80;;
37905;SDS011;23739;51.448;6.674;2024-02-26T14:13:10;6.18;;;3.90;;
37905;SDS011;23739;51.448;6.674;2024-02-26T14:15:36;8.98;;;4.57;;
37905;SDS011;23739;51.448;6.674;2024-02-26T14:18:03;7.18;;;4.85;;
37905;SDS011;23739;51.448;6.674;2024-02-26T14:20:30;16.55;;;5.43;;
37905;SDS011;23739;51.448;6.674;2024-02-26T14:22:56;7.35;;;3.88;;
37905;SDS011;23739;51.448;6.674;2024-02-26T14:25:22;5.72;;;3.97;;
37905;SDS011;23739;51.448;6.674;2024-02-26T14:27:48;5.80;;;3.75;;
37905;SDS011;23739;51.448;6.674;2024-02-26T14:30:14;5.40;;;3.63;;
37905;SDS011;23739;51.448;6.674;2024-02-26T14:32:40;8.75;;;4.43;;
37905;SDS011;23739;51.448;6.674;2024-02-26T14:35:07;8.60;;;4.32;;
37905;SDS011;23739;51.448;6.674;2024-02-26T14:37:34;7.28;;;4.13;;
37905;SDS011;23739;51.448;6.674;2024-02-26T14:40:01;8.05;;;4.15;;
37905;SDS011;23739;51.448;6.674;2024-02-26T14:42:30;11.13;;;5.85;;
37905;SDS011;23739;51.448;6.674;2024-02-26T14:44:56;10.88;;;5.93;;
37905;SDS011;23739;51.448;6.674;2024-02-26T14:47:22;14.30;;;6.70;;
37905;SDS011;23739;51.448;6.674;2024-02-26T14:49:48;11.15;;;6.22;;
37905;SDS011;23739;51.448;6.674;2024-02-26T14:52:16;13.27;;;6.18;;
37905;SDS011;23739;51.448;6.674;2024-02-26T14:54:42;8.60;;;5.30;;
37905;SDS011;23739;51.448;6.674;2024-02-26T14:57:09;11.38;;;5.43;;
37905;SDS011;23739;51.448;6.674;2024-02-26T14:59:35;11.15;;;5.00;;
37905;SDS011;23739;51.448;6.674;2024-02-26T15:02:01;12.27;;;5.88;;
37905;SDS011;23739;51.448;6.674;2024-02-26T15:04:28;11.80;;;6.30;;